sensor_id;sensor_type;location;lat;lon;timestamp;P1;durP1;ratioP1;P2;durP2;ratioP2
11042;SDS011;5574;48.786;10.120;2023-03-23T00:01:59;3.83;;;2.80;;
11042;SDS011;5574;48.786;10.120;2023-03-23T00:04:26;5.43;;;2.70;;
11042;SDS011;5574;48.786;10.120;2023-03-23T00:06:56;4.10;;;2.70;;
11042;SDS011;5574;48.786;10.120;2023-03-23T00:09:25;8.73;;;3.10;;
11042;SDS011;5574;48.786;10.120;2023-03-23T00:11:52;7.53;;;3.00;;
11042;SDS011;5574;48.786;10.120;2023-03-23T00:14:22;7.37;;;3.10;;
11042;SDS011;5574;48.786;10.120;2023-03-23T00:16:49;6.97;;;2.80;;
11042;SDS011;5574;48.786;10.120;2023-03-23T00:19:17;6.07;;;2.70;;
11042;SDS011;5574;48.786;10.120;2023-03-23T00:21:45;7.23;;;3.10;;
11042;SDS011;5574;48.786;10.120;2023-03-23T00:24:14;7.67;;;3.00;;
11042;SDS011;5574;48.786;10.120;2023-03-23T00:26:42;6.57;;;2.90;;
11042;SDS011;5574;48.786;10.120;2023-03-23T00:29:12;6.13;;;2.60;;
11042;SDS011;5574;48.786;10.120;2023-03-23T00:31:40;6.97;;;2.80;;
11042;SDS011;5574;48.786;10.120;2023-03-23T00:34:12;14.23;;;3.23;;
11042;SDS011;5574;48.786;10.120;2023-03-23T00:36:44;12.33;;;3.43;;
11042;SDS011;5574;48.786;10.120;2023-03-23T00:39:11;9.30;;;3.60;;
11042;SDS011;5574;48.786;10.120;2023-03-23T00:41:41;8.80;;;3.40;;
11042;SDS011;5574;48.786;10.120;2023-03-23T00:44:08;8.97;;;3.10;;
11042;SDS011;5574;48.786;10.120;2023-03-23T00:46:35;10.97;;;3.20;;
11042;SDS011;5574;48.786;10.120;2023-03-23T00:49:09;10.80;;;3.37;;
11042;SDS011;5574;48.786;10.120;2023-03-23T00:51:37;7.87;;;3.33;;
11042;SDS011;5574;48.786;10.120;2023-03-23T00:54:04;18.30;;;4.33;;
11042;SDS011;5574;48.786;10.120;2023-03-23T00:56:32;14.33;;;4.70;;
11042;SDS011;5574;48.786;10.120;2023-03-23T00:58:59;13.87;;;4.63;;
11042;SDS011;5574;48.786;10.120;2023-03-23T01:01:25;10.90;;;4.33;;
11042;SDS011;5574;48.786;10.120;2023-03-23T01:03:52;14.23;;;3.97;;
11042;SDS011;5574;48.786;10.120;2023-03-23T01:06:26;10.23;;;3.40;;
11042;SDS011;5574;48.786;10.120;2023-03-23T01:08:53;11.77;;;3.57;;
11042;SDS011;5574;48.786;10.120;2023-03-23T01:11:21;10.33;;;3.73;;
11042;SDS011;5574;48.786;10.120;2023-03-23T01:13:51;9.73;;;3.10;;
11042;SDS011;5574;48.786;10.120;2023-03-23T01:16:18;15.43;;;3.37;;
11042;SDS011;5574;48.786;10.120;2023-03-23T01:18:45;10.90;;;3.20;;
11042;SDS011;5574;48.786;10.120;2023-03-23T01:21:12;15.23;;;4.17;;
11042;SDS011;5574;48.786;10.120;2023-03-23T01:23:40;12.67;;;3.73;;
11042;SDS011;5574;48.786;10.120;2023-03-23T01:26:09;18.80;;;3.87;;
11042;SDS011;5574;48.786;10.120;2023-03-23T01:28:37;18.43;;;4.70;;
11042;SDS011;5574;48.786;10.120;2023-03-23T01:31:06;18.33;;;4.20;;
11042;SDS011;5574;48.786;10.120;2023-03-23T01:33:37;19.73;;;4.43;;
11042;SDS011;5574;48.786;10.120;2023-03-23T01:36:04;18.27;;;3.90;;
11042;SDS011;5574;48.786;10.120;2023-03-23T01:38:33;14.97;;;4.00;;
11042;SDS011;5574;48.786;10.120;2023-03-23T01:41:01;23.53;;;3.90;;
11042;SDS011;5574;48.786;10.120;2023-03-23T01:43:28;11.17;;;3.23;;
11042;SDS011;5574;48.786;10.120;2023-03-23T01:45:55;17.40;;;4.03;;
11042;SDS011;5574;48.786;10.120;2023-03-23T01:48:23;15.33;;;3.77;;
11042;SDS011;5574;48.786;10.120;2023-03-23T01:50:54;23.70;;;4.50;;
11042;SDS011;5574;48.786;10.120;2023-03-23T01:53:25;15.20;;;3.53;;
11042;SDS011;5574;48.786;10.120;2023-03-23T01:55:55;8.67;;;2.80;;
11042;SDS011;5574;48.786;10.120;2023-03-23T01:58:24;8.13;;;2.90;;
11042;SDS011;5574;48.786;10.120;2023-03-23T02:00:54;9.53;;;3.07;;
11042;SDS011;5574;48.786;10.120;2023-03-23T02:03:25;9.33;;;3.20;;
11042;SDS011;5574;48.786;10.120;2023-03-23T02:05:53;13.47;;;3.27;;
11042;SDS011;5574;48.786;10.120;2023-03-23T02:08:23;9.90;;;2.97;;
11042;SDS011;5574;48.786;10.120;2023-03-23T02:10:53;15.83;;;3.33;;
11042;SDS011;5574;48.786;10.120;2023-03-23T02:13:20;19.63;;;3.20;;
11042;SDS011;5574;48.786;10.120;2023-03-23T02:15:49;17.60;;;3.83;;
11042;SDS011;5574;48.786;10.120;2023-03-23T02:18:32;20.43;;;3.83;;
11042;SDS011;5574;48.786;10.120;2023-03-23T02:24:10;11.90;;;2.90;;
11042;SDS011;5574;48.786;10.120;2023-03-23T02:26:57;16.10;;;3.33;;
11042;SDS011;5574;48.786;10.120;2023-03-23T02:29:32;9.43;;;2.90;;
11042;SDS011;5574;48.786;10.120;2023-03-23T02:32:14;15.70;;;3.23;;
11042;SDS011;5574;48.786;10.120;2023-03-23T02:34:50;7.93;;;2.87;;
11042;SDS011;5574;48.786;10.120;2023-03-23T02:37:19;8.33;;;3.00;;
11042;SDS011;5574;48.786;10.120;2023-03-23T02:39:51;7.77;;;2.87;;
11042;SDS011;5574;48.786;10.120;2023-03-23T02:42:23;6.30;;;2.83;;
11042;SDS011;5574;48.786;10.120;2023-03-23T02:44:53;11.47;;;2.80;;
11042;SDS011;5574;48.786;10.120;2023-03-23T02:47:24;6.47;;;2.37;;
11042;SDS011;5574;48.786;10.120;2023-03-23T02:49:55;9.20;;;2.77;;
11042;SDS011;5574;48.786;10.120;2023-03-23T02:52:26;6.33;;;2.50;;
11042;SDS011;5574;48.786;10.120;2023-03-23T02:54:55;8.53;;;2.87;;
11042;SDS011;5574;48.786;10.120;2023-03-23T02:57:24;15.37;;;2.43;;
11042;SDS011;5574;48.786;10.120;2023-03-23T02:59:53;13.50;;;3.03;;
11042;SDS011;5574;48.786;10.120;2023-03-23T03:02:21;7.07;;;2.53;;
11042;SDS011;5574;48.786;10.120;2023-03-23T03:04:52;10.20;;;2.70;;
11042;SDS011;5574;48.786;10.120;2023-03-23T03:07:35;14.67;;;2.70;;
11042;SDS011;5574;48.786;10.120;2023-03-23T03:10:22;12.37;;;2.67;;
11042;SDS011;5574;48.786;10.120;2023-03-23T03:12:53;11.97;;;2.57;;
11042;SDS011;5574;48.786;10.120;2023-03-23T03:15:27;7.93;;;3.03;;
11042;SDS011;5574;48.786;10.120;2023-03-23T03:18:00;8.03;;;2.70;;
11042;SDS011;5574;48.786;10.120;2023-03-23T03:20:35;13.03;;;2.80;;
11042;SDS011;5574;48.786;10.120;2023-03-23T03:23:06;9.40;;;2.73;;
11042;SDS011;5574;48.786;10.120;2023-03-23T03:25:37;5.37;;;2.30;;
11042;SDS011;5574;48.786;10.120;2023-03-23T03:28:05;7.67;;;3.47;;
11042;SDS011;5574;48.786;10.120;2023-03-23T03:30:32;17.67;;;3.80;;
11042;SDS011;5574;48.786;10.120;2023-03-23T03:33:01;7.37;;;2.80;;
11042;SDS011;5574;48.786;10.120;2023-03-23T03:35:29;11.13;;;3.03;;
11042;SDS011;5574;48.786;10.120;2023-03-23T03:37:59;6.27;;;2.50;;
11042;SDS011;5574;48.786;10.120;2023-03-23T03:40:32;11.47;;;3.03;;
11042;SDS011;5574;48.786;10.120;2023-03-23T03:42:59;6.97;;;3.07;;
11042;SDS011;5574;48.786;10.120;2023-03-23T03:45:25;10.07;;;3.00;;
11042;SDS011;5574;48.786;10.120;2023-03-23T03:47:52;10.23;;;3.33;;
11042;SDS011;5574;48.786;10.120;2023-03-23T03:50:19;6.73;;;3.00;;
11042;SDS011;5574;48.786;10.120;2023-03-23T03:52:45;12.80;;;2.50;;
11042;SDS011;5574;48.786;10.120;2023-03-23T03:55:14;12.73;;;2.87;;
11042;SDS011;5574;48.786;10.120;2023-03-23T03:57:42;8.90;;;2.30;;
11042;SDS011;5574;48.786;10.120;2023-03-23T04:00:09;7.23;;;2.47;;
11042;SDS011;5574;48.786;10.120;2023-03-23T04:02:39;11.20;;;3.10;;
11042;SDS011;5574;48.786;10.120;2023-03-23T04:05:07;8.30;;;2.33;;
11042;SDS011;5574;48.786;10.120;2023-03-23T04:07:35;5.83;;;2.43;;
11042;SDS011;5574;48.786;10.120;2023-03-23T04:10:04;5.80;;;2.63;;
11042;SDS011;5574;48.786;10.120;2023-03-23T04:12:33;10.60;;;2.80;;
11042;SDS011;5574;48.786;10.120;2023-03-23T04:15:00;6.40;;;2.40;;
11042;SDS011;5574;48.786;10.120;2023-03-23T04:17:27;5.30;;;2.73;;
11042;SDS011;5574;48.786;10.120;2023-03-23T04:19:54;10.13;;;3.57;;
11042;SDS011;5574;48.786;10.120;2023-03-23T04:22:22;9.13;;;3.47;;
11042;SDS011;5574;48.786;10.120;2023-03-23T04:24:55;10.27;;;2.90;;
11042;SDS011;5574;48.786;10.120;2023-03-23T04:27:23;9.37;;;3.40;;
11042;SDS011;5574;48.786;10.120;2023-03-23T04:29:54;9.80;;;2.90;;
11042;SDS011;5574;48.786;10.120;2023-03-23T04:32:23;9.90;;;3.03;;
11042;SDS011;5574;48.786;10.120;2023-03-23T04:34:53;11.00;;;4.67;;
11042;SDS011;5574;48.786;10.120;2023-03-23T04:37:21;7.53;;;3.43;;
11042;SDS011;5574;48.786;10.120;2023-03-23T04:39:50;8.10;;;3.90;;
11042;SDS011;5574;48.786;10.120;2023-03-23T04:42:25;8.90;;;2.93;;
11042;SDS011;5574;48.786;10.120;2023-03-23T04:44:54;6.03;;;2.53;;
11042;SDS011;5574;48.786;10.120;2023-03-23T04:47:21;6.87;;;3.17;;
11042;SDS011;5574;48.786;10.120;2023-03-23T04:49:48;11.13;;;3.07;;
11042;SDS011;5574;48.786;10.120;2023-03-23T04:52:15;7.67;;;2.50;;
11042;SDS011;5574;48.786;10.120;2023-03-23T04:54:42;4.43;;;2.00;;
11042;SDS011;5574;48.786;10.120;2023-03-23T04:57:09;3.73;;;2.47;;
11042;SDS011;5574;48.786;10.120;2023-03-23T04:59:37;4.67;;;2.30;;
11042;SDS011;5574;48.786;10.120;2023-03-23T05:02:05;5.20;;;2.30;;
11042;SDS011;5574;48.786;10.120;2023-03-23T05:04:32;5.50;;;2.33;;
11042;SDS011;5574;48.786;10.120;2023-03-23T05:06:59;6.23;;;2.20;;
11042;SDS011;5574;48.786;10.120;2023-03-23T05:09:25;6.60;;;2.60;;
11042;SDS011;5574;48.786;10.120;2023-03-23T05:11:52;8.80;;;2.40;;
11042;SDS011;5574;48.786;10.120;2023-03-23T05:14:19;5.23;;;2.77;;
11042;SDS011;5574;48.786;10.120;2023-03-23T05:16:46;8.27;;;2.40;;
11042;SDS011;5574;48.786;10.120;2023-03-23T05:19:15;8.77;;;3.07;;
11042;SDS011;5574;48.786;10.120;2023-03-23T05:21:41;4.47;;;2.37;;
11042;SDS011;5574;48.786;10.120;2023-03-23T05:24:09;4.97;;;2.50;;
11042;SDS011;5574;48.786;10.120;2023-03-23T05:26:36;6.57;;;2.33;;
11042;SDS011;5574;48.786;10.120;2023-03-23T05:29:02;4.70;;;2.50;;
11042;SDS011;5574;48.786;10.120;2023-03-23T05:31:29;5.80;;;2.60;;
11042;SDS011;5574;48.786;10.120;2023-03-23T05:33:57;3.63;;;2.30;;
11042;SDS011;5574;48.786;10.120;2023-03-23T05:36:25;5.40;;;2.30;;
11042;SDS011;5574;48.786;10.120;2023-03-23T05:38:52;6.50;;;2.60;;
11042;SDS011;5574;48.786;10.120;2023-03-23T05:41:19;4.20;;;2.30;;
11042;SDS011;5574;48.786;10.120;2023-03-23T05:43:47;7.37;;;2.30;;
11042;SDS011;5574;48.786;10.120;2023-03-23T05:46:13;4.57;;;2.20;;
11042;SDS011;5574;48.786;10.120;2023-03-23T05:48:40;9.27;;;2.53;;
11042;SDS011;5574;48.786;10.120;2023-03-23T05:51:07;5.97;;;2.67;;
11042;SDS011;5574;48.786;10.120;2023-03-23T05:53:36;7.83;;;2.87;;
11042;SDS011;5574;48.786;10.120;2023-03-23T05:56:03;4.50;;;2.27;;
11042;SDS011;5574;48.786;10.120;2023-03-23T05:58:31;7.97;;;2.50;;
11042;SDS011;5574;48.786;10.120;2023-03-23T06:00:58;4.97;;;2.93;;
11042;SDS011;5574;48.786;10.120;2023-03-23T06:03:25;4.73;;;2.47;;
11042;SDS011;5574;48.786;10.120;2023-03-23T06:05:51;3.93;;;2.50;;
11042;SDS011;5574;48.786;10.120;2023-03-23T06:08:18;8.13;;;2.47;;
11042;SDS011;5574;48.786;10.120;2023-03-23T06:10:46;5.77;;;2.83;;
11042;SDS011;5574;48.786;10.120;2023-03-23T06:13:13;6.37;;;3.00;;
11042;SDS011;5574;48.786;10.120;2023-03-23T06:15:39;9.63;;;2.77;;
11042;SDS011;5574;48.786;10.120;2023-03-23T06:18:06;3.37;;;2.70;;
11042;SDS011;5574;48.786;10.120;2023-03-23T06:20:33;4.23;;;2.47;;
11042;SDS011;5574;48.786;10.120;2023-03-23T06:23:00;3.90;;;2.70;;
11042;SDS011;5574;48.786;10.120;2023-03-23T06:25:28;7.80;;;2.90;;
11042;SDS011;5574;48.786;10.120;2023-03-23T06:27:56;3.77;;;2.67;;
11042;SDS011;5574;48.786;10.120;2023-03-23T06:30:23;4.63;;;2.63;;
11042;SDS011;5574;48.786;10.120;2023-03-23T06:32:50;6.30;;;2.93;;
11042;SDS011;5574;48.786;10.120;2023-03-23T06:35:17;3.13;;;2.17;;
11042;SDS011;5574;48.786;10.120;2023-03-23T06:37:44;2.33;;;2.00;;
11042;SDS011;5574;48.786;10.120;2023-03-23T06:40:11;2.30;;;1.90;;
11042;SDS011;5574;48.786;10.120;2023-03-23T06:42:37;4.03;;;2.57;;
11042;SDS011;5574;48.786;10.120;2023-03-23T06:45:06;4.23;;;2.10;;
11042;SDS011;5574;48.786;10.120;2023-03-23T06:47:33;3.10;;;2.27;;
11042;SDS011;5574;48.786;10.120;2023-03-23T06:50:00;2.53;;;1.57;;
11042;SDS011;5574;48.786;10.120;2023-03-23T06:52:27;3.20;;;2.00;;
11042;SDS011;5574;48.786;10.120;2023-03-23T06:54:54;3.00;;;2.40;;
11042;SDS011;5574;48.786;10.120;2023-03-23T06:57:20;2.13;;;1.93;;
11042;SDS011;5574;48.786;10.120;2023-03-23T06:59:47;2.27;;;2.07;;
11042;SDS011;5574;48.786;10.120;2023-03-23T07:02:15;3.00;;;2.10;;
11042;SDS011;5574;48.786;10.120;2023-03-23T07:04:42;2.30;;;2.10;;
11042;SDS011;5574;48.786;10.120;2023-03-23T07:07:09;2.03;;;1.93;;
11042;SDS011;5574;48.786;10.120;2023-03-23T07:09:39;2.07;;;1.87;;
11042;SDS011;5574;48.786;10.120;2023-03-23T07:12:06;2.50;;;2.10;;
11042;SDS011;5574;48.786;10.120;2023-03-23T07:14:33;2.90;;;2.33;;
11042;SDS011;5574;48.786;10.120;2023-03-23T07:17:00;2.73;;;2.20;;
11042;SDS011;5574;48.786;10.120;2023-03-23T07:19:28;2.57;;;2.30;;
11042;SDS011;5574;48.786;10.120;2023-03-23T07:21:54;4.33;;;2.13;;
11042;SDS011;5574;48.786;10.120;2023-03-23T07:24:22;2.40;;;2.20;;
11042;SDS011;5574;48.786;10.120;2023-03-23T07:26:48;2.27;;;1.80;;
11042;SDS011;5574;48.786;10.120;2023-03-23T07:29:15;2.63;;;2.43;;
11042;SDS011;5574;48.786;10.120;2023-03-23T07:31:42;2.20;;;2.00;;
11042;SDS011;5574;48.786;10.120;2023-03-23T07:34:09;2.47;;;2.00;;
11042;SDS011;5574;48.786;10.120;2023-03-23T07:36:37;2.00;;;1.80;;
11042;SDS011;5574;48.786;10.120;2023-03-23T07:39:04;2.80;;;2.33;;
11042;SDS011;5574;48.786;10.120;2023-03-23T07:41:31;2.67;;;2.10;;
11042;SDS011;5574;48.786;10.120;2023-03-23T07:43:58;3.33;;;2.53;;
11042;SDS011;5574;48.786;10.120;2023-03-23T07:46:25;1.97;;;1.80;;
11042;SDS011;5574;48.786;10.120;2023-03-23T07:48:51;4.27;;;2.00;;
11042;SDS011;5574;48.786;10.120;2023-03-23T07:51:18;2.30;;;2.00;;
11042;SDS011;5574;48.786;10.120;2023-03-23T07:53:48;3.97;;;2.10;;
11042;SDS011;5574;48.786;10.120;2023-03-23T07:56:15;2.40;;;2.00;;
11042;SDS011;5574;48.786;10.120;2023-03-23T07:58:44;2.37;;;2.00;;
11042;SDS011;5574;48.786;10.120;2023-03-23T08:01:11;2.20;;;2.00;;
11042;SDS011;5574;48.786;10.120;2023-03-23T08:03:38;2.20;;;2.03;;
11042;SDS011;5574;48.786;10.120;2023-03-23T08:06:05;2.40;;;2.20;;
11042;SDS011;5574;48.786;10.120;2023-03-23T08:08:33;4.13;;;2.23;;
11042;SDS011;5574;48.786;10.120;2023-03-23T08:11:02;3.17;;;2.77;;
11042;SDS011;5574;48.786;10.120;2023-03-23T08:13:28;2.30;;;2.10;;
11042;SDS011;5574;48.786;10.120;2023-03-23T08:15:55;3.80;;;2.20;;
11042;SDS011;5574;48.786;10.120;2023-03-23T08:18:22;2.37;;;2.00;;
11042;SDS011;5574;48.786;10.120;2023-03-23T08:20:49;2.67;;;2.20;;
11042;SDS011;5574;48.786;10.120;2023-03-23T08:23:18;2.70;;;2.20;;
11042;SDS011;5574;48.786;10.120;2023-03-23T08:25:44;3.93;;;2.30;;
11042;SDS011;5574;48.786;10.120;2023-03-23T08:28:13;5.30;;;2.30;;
11042;SDS011;5574;48.786;10.120;2023-03-23T08:30:40;3.80;;;2.17;;
11042;SDS011;5574;48.786;10.120;2023-03-23T08:33:07;2.43;;;2.23;;
11042;SDS011;5574;48.786;10.120;2023-03-23T08:35:36;3.97;;;2.07;;
11042;SDS011;5574;48.786;10.120;2023-03-23T08:38:03;3.57;;;2.10;;
11042;SDS011;5574;48.786;10.120;2023-03-23T08:40:30;5.30;;;2.20;;
11042;SDS011;5574;48.786;10.120;2023-03-23T08:42:57;3.43;;;2.20;;
11042;SDS011;5574;48.786;10.120;2023-03-23T08:45:25;9.07;;;2.30;;
11042;SDS011;5574;48.786;10.120;2023-03-23T08:47:52;2.53;;;2.07;;
11042;SDS011;5574;48.786;10.120;2023-03-23T08:50:21;2.20;;;2.00;;
11042;SDS011;5574;48.786;10.120;2023-03-23T08:52:49;3.20;;;1.80;;
11042;SDS011;5574;48.786;10.120;2023-03-23T08:55:18;5.17;;;1.90;;
11042;SDS011;5574;48.786;10.120;2023-03-23T08:57:45;3.20;;;2.13;;
11042;SDS011;5574;48.786;10.120;2023-03-23T09:00:13;2.00;;;1.80;;
11042;SDS011;5574;48.786;10.120;2023-03-23T09:02:44;2.17;;;1.90;;
11042;SDS011;5574;48.786;10.120;2023-03-23T09:05:13;2.00;;;1.80;;
11042;SDS011;5574;48.786;10.120;2023-03-23T09:07:41;4.20;;;1.93;;
11042;SDS011;5574;48.786;10.120;2023-03-23T09:10:10;2.07;;;1.60;;
11042;SDS011;5574;48.786;10.120;2023-03-23T09:12:38;2.47;;;1.57;;
11042;SDS011;5574;48.786;10.120;2023-03-23T09:15:06;1.77;;;1.30;;
11042;SDS011;5574;48.786;10.120;2023-03-23T09:17:34;1.40;;;1.30;;
11042;SDS011;5574;48.786;10.120;2023-03-23T09:20:04;1.20;;;1.10;;
11042;SDS011;5574;48.786;10.120;2023-03-23T09:22:35;1.90;;;1.20;;
11042;SDS011;5574;48.786;10.120;2023-03-23T09:25:03;2.00;;;1.17;;
11042;SDS011;5574;48.786;10.120;2023-03-23T09:27:30;1.05;;;1.00;;
11042;SDS011;5574;48.786;10.120;2023-03-23T09:29:57;2.27;;;1.40;;
11042;SDS011;5574;48.786;10.120;2023-03-23T09:32:26;1.53;;;1.20;;
11042;SDS011;5574;48.786;10.120;2023-03-23T09:34:52;1.17;;;0.97;;
11042;SDS011;5574;48.786;10.120;2023-03-23T09:37:22;2.40;;;1.20;;
11042;SDS011;5574;48.786;10.120;2023-03-23T09:39:48;2.53;;;1.30;;
11042;SDS011;5574;48.786;10.120;2023-03-23T09:42:24;3.13;;;1.20;;
11042;SDS011;5574;48.786;10.120;2023-03-23T09:45:04;0.95;;;0.90;;
11042;SDS011;5574;48.786;10.120;2023-03-23T09:47:41;3.38;;;1.80;;
11042;SDS011;5574;48.786;10.120;2023-03-23T09:50:15;2.10;;;1.40;;
11042;SDS011;5574;48.786;10.120;2023-03-23T09:52:46;2.67;;;1.42;;
11042;SDS011;5574;48.786;10.120;2023-03-23T09:55:23;2.40;;;1.60;;
11042;SDS011;5574;48.786;10.120;2023-03-23T09:57:54;4.18;;;1.70;;
11042;SDS011;5574;48.786;10.120;2023-03-23T10:00:26;4.53;;;2.08;;
11042;SDS011;5574;48.786;10.120;2023-03-23T10:02:59;5.18;;;1.70;;
11042;SDS011;5574;48.786;10.120;2023-03-23T10:05:31;3.15;;;1.45;;
11042;SDS011;5574;48.786;10.120;2023-03-23T10:08:02;1.83;;;1.67;;
11042;SDS011;5574;48.786;10.120;2023-03-23T10:10:36;2.07;;;1.30;;
11042;SDS011;5574;48.786;10.120;2023-03-23T10:13:13;1.40;;;1.30;;
11042;SDS011;5574;48.786;10.120;2023-03-23T10:15:45;1.77;;;1.20;;
11042;SDS011;5574;48.786;10.120;2023-03-23T10:18:14;2.17;;;1.50;;
11042;SDS011;5574;48.786;10.120;2023-03-23T10:20:46;1.38;;;1.27;;
11042;SDS011;5574;48.786;10.120;2023-03-23T10:23:32;1.40;;;1.30;;
11042;SDS011;5574;48.786;10.120;2023-03-23T10:26:08;1.80;;;1.23;;
11042;SDS011;5574;48.786;10.120;2023-03-23T10:28:42;1.50;;;1.38;;
11042;SDS011;5574;48.786;10.120;2023-03-23T10:31:11;1.42;;;1.33;;
11042;SDS011;5574;48.786;10.120;2023-03-23T10:33:41;2.28;;;1.55;;
11042;SDS011;5574;48.786;10.120;2023-03-23T10:36:12;2.07;;;1.50;;
11042;SDS011;5574;48.786;10.120;2023-03-23T10:38:45;1.40;;;1.30;;
11042;SDS011;5574;48.786;10.120;2023-03-23T10:41:15;1.50;;;1.40;;
11042;SDS011;5574;48.786;10.120;2023-03-23T10:43:43;1.53;;;1.30;;
11042;SDS011;5574;48.786;10.120;2023-03-23T10:46:17;2.70;;;1.60;;
11042;SDS011;5574;48.786;10.120;2023-03-23T10:49:00;1.50;;;1.40;;
11042;SDS011;5574;48.786;10.120;2023-03-23T10:51:31;1.20;;;1.10;;
11042;SDS011;5574;48.786;10.120;2023-03-23T10:54:02;1.83;;;1.73;;
11042;SDS011;5574;48.786;10.120;2023-03-23T10:56:34;2.72;;;2.28;;
11042;SDS011;5574;48.786;10.120;2023-03-23T10:59:12;1.85;;;1.50;;
11042;SDS011;5574;48.786;10.120;2023-03-23T11:01:42;1.95;;;1.58;;
11042;SDS011;5574;48.786;10.120;2023-03-23T11:04:12;1.60;;;1.50;;
11042;SDS011;5574;48.786;10.120;2023-03-23T11:06:43;1.53;;;1.40;;
11042;SDS011;5574;48.786;10.120;2023-03-23T11:09:13;2.92;;;1.48;;
11042;SDS011;5574;48.786;10.120;2023-03-23T11:11:43;1.40;;;1.25;;
11042;SDS011;5574;48.786;10.120;2023-03-23T11:14:15;1.30;;;1.20;;
11042;SDS011;5574;48.786;10.120;2023-03-23T11:16:44;1.25;;;1.20;;
11042;SDS011;5574;48.786;10.120;2023-03-23T11:19:20;1.50;;;1.10;;
11042;SDS011;5574;48.786;10.120;2023-03-23T11:21:52;1.48;;;1.38;;
11042;SDS011;5574;48.786;10.120;2023-03-23T11:24:22;1.60;;;1.50;;
11042;SDS011;5574;48.786;10.120;2023-03-23T11:26:51;3.42;;;1.50;;
11042;SDS011;5574;48.786;10.120;2023-03-23T11:29:19;1.67;;;1.58;;
11042;SDS011;5574;48.786;10.120;2023-03-23T11:31:49;3.97;;;1.83;;
11042;SDS011;5574;48.786;10.120;2023-03-23T11:34:19;2.13;;;1.92;;
11042;SDS011;5574;48.786;10.120;2023-03-23T11:36:48;2.13;;;1.50;;
11042;SDS011;5574;48.786;10.120;2023-03-23T11:39:21;1.52;;;1.42;;
11042;SDS011;5574;48.786;10.120;2023-03-23T11:41:51;3.00;;;1.83;;
11042;SDS011;5574;48.786;10.120;2023-03-23T11:44:19;2.33;;;1.50;;
11042;SDS011;5574;48.786;10.120;2023-03-23T11:46:50;1.40;;;1.30;;
11042;SDS011;5574;48.786;10.120;2023-03-23T11:49:30;2.17;;;1.63;;
11042;SDS011;5574;48.786;10.120;2023-03-23T11:52:05;1.90;;;1.48;;
11042;SDS011;5574;48.786;10.120;2023-03-23T11:54:42;2.00;;;1.70;;
11042;SDS011;5574;48.786;10.120;2023-03-23T11:57:12;1.88;;;1.70;;
11042;SDS011;5574;48.786;10.120;2023-03-23T11:59:41;2.13;;;1.65;;
11042;SDS011;5574;48.786;10.120;2023-03-23T12:02:21;3.28;;;1.60;;
11042;SDS011;5574;48.786;10.120;2023-03-23T12:05:04;3.30;;;1.85;;
11042;SDS011;5574;48.786;10.120;2023-03-23T12:07:52;2.88;;;1.60;;
11042;SDS011;5574;48.786;10.120;2023-03-23T12:10:29;1.55;;;1.45;;
11042;SDS011;5574;48.786;10.120;2023-03-23T12:13:12;2.17;;;1.95;;
11042;SDS011;5574;48.786;10.120;2023-03-23T12:15:53;1.77;;;1.63;;
11042;SDS011;5574;48.786;10.120;2023-03-23T12:18:40;1.52;;;1.42;;
11042;SDS011;5574;48.786;10.120;2023-03-23T12:21:15;2.00;;;1.50;;
11042;SDS011;5574;48.786;10.120;2023-03-23T12:23:49;1.95;;;1.40;;
11042;SDS011;5574;48.786;10.120;2023-03-23T12:26:23;1.33;;;1.20;;
11042;SDS011;5574;48.786;10.120;2023-03-23T12:28:59;1.70;;;1.50;;
11042;SDS011;5574;48.786;10.120;2023-03-23T12:31:38;3.17;;;1.75;;
11042;SDS011;5574;48.786;10.120;2023-03-23T12:34:16;1.60;;;1.50;;
11042;SDS011;5574;48.786;10.120;2023-03-23T12:36:59;1.73;;;1.63;;
11042;SDS011;5574;48.786;10.120;2023-03-23T12:39:48;2.00;;;1.80;;
11042;SDS011;5574;48.786;10.120;2023-03-23T12:42:24;3.17;;;1.70;;
11042;SDS011;5574;48.786;10.120;2023-03-23T12:45:00;3.35;;;1.80;;
11042;SDS011;5574;48.786;10.120;2023-03-23T12:47:39;3.10;;;1.50;;
11042;SDS011;5574;48.786;10.120;2023-03-23T12:50:11;1.92;;;1.60;;
11042;SDS011;5574;48.786;10.120;2023-03-23T12:52:42;1.40;;;1.30;;
11042;SDS011;5574;48.786;10.120;2023-03-23T12:55:14;1.92;;;1.63;;
11042;SDS011;5574;48.786;10.120;2023-03-23T12:57:47;3.63;;;2.00;;
11042;SDS011;5574;48.786;10.120;2023-03-23T13:00:21;2.47;;;1.50;;
11042;SDS011;5574;48.786;10.120;2023-03-23T13:02:53;3.33;;;1.50;;
11042;SDS011;5574;48.786;10.120;2023-03-23T13:05:27;1.40;;;1.30;;
11042;SDS011;5574;48.786;10.120;2023-03-23T13:08:00;2.13;;;1.60;;
11042;SDS011;5574;48.786;10.120;2023-03-23T13:10:32;1.70;;;1.60;;
11042;SDS011;5574;48.786;10.120;2023-03-23T13:13:03;2.30;;;1.65;;
11042;SDS011;5574;48.786;10.120;2023-03-23T13:15:32;2.22;;;1.50;;
11042;SDS011;5574;48.786;10.120;2023-03-23T13:18:10;2.22;;;1.63;;
11042;SDS011;5574;48.786;10.120;2023-03-23T13:20:48;2.10;;;1.67;;
11042;SDS011;5574;48.786;10.120;2023-03-23T13:23:22;2.85;;;1.40;;
11042;SDS011;5574;48.786;10.120;2023-03-23T13:25:54;1.88;;;1.48;;
11042;SDS011;5574;48.786;10.120;2023-03-23T13:28:24;1.95;;;1.48;;
11042;SDS011;5574;48.786;10.120;2023-03-23T13:30:57;1.67;;;1.55;;
11042;SDS011;5574;48.786;10.120;2023-03-23T13:33:29;2.22;;;1.90;;
11042;SDS011;5574;48.786;10.120;2023-03-23T13:36:02;2.70;;;1.60;;
11042;SDS011;5574;48.786;10.120;2023-03-23T13:38:32;1.70;;;1.60;;
11042;SDS011;5574;48.786;10.120;2023-03-23T13:41:05;3.03;;;1.70;;
11042;SDS011;5574;48.786;10.120;2023-03-23T13:43:37;1.70;;;1.60;;
11042;SDS011;5574;48.786;10.120;2023-03-23T13:46:07;2.20;;;1.80;;
11042;SDS011;5574;48.786;10.120;2023-03-23T13:48:40;4.70;;;2.00;;
11042;SDS011;5574;48.786;10.120;2023-03-23T13:51:23;2.35;;;1.88;;
11042;SDS011;5574;48.786;10.120;2023-03-23T13:54:04;1.75;;;1.50;;
11042;SDS011;5574;48.786;10.120;2023-03-23T13:56:36;2.67;;;1.52;;
11042;SDS011;5574;48.786;10.120;2023-03-23T13:59:12;5.10;;;2.15;;
11042;SDS011;5574;48.786;10.120;2023-03-23T14:01:41;3.33;;;1.90;;
11042;SDS011;5574;48.786;10.120;2023-03-23T14:04:10;1.60;;;1.50;;
11042;SDS011;5574;48.786;10.120;2023-03-23T14:06:40;2.00;;;1.80;;
11042;SDS011;5574;48.786;10.120;2023-03-23T14:09:10;2.83;;;1.80;;
11042;SDS011;5574;48.786;10.120;2023-03-23T14:11:47;4.93;;;1.90;;
11042;SDS011;5574;48.786;10.120;2023-03-23T14:14:20;2.70;;;1.85;;
11042;SDS011;5574;48.786;10.120;2023-03-23T14:16:50;2.00;;;1.80;;
11042;SDS011;5574;48.786;10.120;2023-03-23T14:19:19;4.93;;;2.20;;
11042;SDS011;5574;48.786;10.120;2023-03-23T14:21:49;1.95;;;1.77;;
11042;SDS011;5574;48.786;10.120;2023-03-23T14:24:19;3.72;;;1.73;;
11042;SDS011;5574;48.786;10.120;2023-03-23T14:26:49;2.35;;;1.80;;
11042;SDS011;5574;48.786;10.120;2023-03-23T14:29:18;1.98;;;1.73;;
11042;SDS011;5574;48.786;10.120;2023-03-23T14:31:49;2.88;;;1.80;;
11042;SDS011;5574;48.786;10.120;2023-03-23T14:34:21;1.85;;;1.75;;
11042;SDS011;5574;48.786;10.120;2023-03-23T14:36:50;3.60;;;2.00;;
11042;SDS011;5574;48.786;10.120;2023-03-23T14:39:19;3.95;;;1.90;;
11042;SDS011;5574;48.786;10.120;2023-03-23T14:41:49;2.00;;;1.80;;
11042;SDS011;5574;48.786;10.120;2023-03-23T14:44:17;3.90;;;1.80;;
11042;SDS011;5574;48.786;10.120;2023-03-23T14:46:48;2.47;;;1.83;;
11042;SDS011;5574;48.786;10.120;2023-03-23T14:49:16;2.20;;;2.03;;
11042;SDS011;5574;48.786;10.120;2023-03-23T14:51:48;2.53;;;1.77;;
11042;SDS011;5574;48.786;10.120;2023-03-23T14:54:19;2.05;;;1.95;;
11042;SDS011;5574;48.786;10.120;2023-03-23T14:56:49;4.00;;;1.67;;
11042;SDS011;5574;48.786;10.120;2023-03-23T14:59:16;6.78;;;2.25;;
11042;SDS011;5574;48.786;10.120;2023-03-23T15:01:44;2.83;;;1.80;;
11042;SDS011;5574;48.786;10.120;2023-03-23T15:04:14;5.15;;;1.70;;
11042;SDS011;5574;48.786;10.120;2023-03-23T15:06:45;2.08;;;1.77;;